createdAt,value
2018-08-22T00:00:35.068Z,99730.00
2018-08-22T00:03:05.574Z,99729.00
2018-08-22T00:05:36.000Z,99727.00
2018-08-22T00:08:06.703Z,99727.00
2018-08-22T00:10:37.355Z,99725.00
2018-08-22T00:13:08.158Z,99728.00
2018-08-22T00:15:38.630Z,99730.00
2018-08-22T00:18:09.078Z,99733.00
2018-08-22T00:20:39.527Z,99724.00
2018-08-22T00:23:09.959Z,99720.00
2018-08-22T00:25:40.636Z,99723.00
2018-08-22T00:28:11.140Z,99723.00
2018-08-22T00:30:41.875Z,99718.00
2018-08-22T00:33:12.329Z,99720.00
2018-08-22T00:35:42.751Z,99723.00
2018-08-22T00:38:13.200Z,99718.00
2018-08-22T00:40:43.652Z,99719.00
2018-08-22T00:43:14.075Z,99720.00
2018-08-22T00:45:44.553Z,99718.00
2018-08-22T00:48:15.056Z,99718.00
2018-08-22T00:50:45.482Z,99714.00
2018-08-22T00:53:15.914Z,99707.00
2018-08-22T00:55:46.338Z,99707.00
2018-08-22T00:58:16.884Z,99708.00
2018-08-22T01:00:47.375Z,99703.00
2018-08-22T01:03:17.872Z,99704.00
2018-08-22T01:05:48.325Z,99698.00
2018-08-22T01:08:18.810Z,99696.00
2018-08-22T01:10:49.303Z,99698.00
2018-08-22T01:13:20.067Z,99696.00
2018-08-22T01:15:50.557Z,99694.00
2018-08-22T01:18:21.041Z,99692.00
2018-08-22T01:20:52.103Z,99695.00
2018-08-22T01:23:22.917Z,99691.00
2018-08-22T01:25:53.402Z,99689.00
2018-08-22T01:28:23.877Z,99688.00
2018-08-22T01:30:54.380Z,99690.00
2018-08-22T01:33:24.956Z,99689.00
2018-08-22T01:35:55.511Z,99690.00
2018-08-22T01:38:26.011Z,99685.00
2018-08-22T01:40:56.717Z,99687.00
2018-08-22T01:43:27.454Z,99687.00
2018-08-22T01:45:57.928Z,99685.00
2018-08-22T01:48:28.439Z,99689.00
2018-08-22T01:50:59.183Z,99692.00
2018-08-22T01:53:29.988Z,99683.00
2018-08-22T01:56:00.685Z,99684.00
2018-08-22T01:58:31.163Z,99682.00
2018-08-22T02:01:01.655Z,99682.00
2018-08-22T02:03:32.119Z,99686.00
2018-08-22T02:06:02.593Z,99677.00
2018-08-22T02:08:33.076Z,99683.00
2018-08-22T02:11:03.753Z,99677.00
2018-08-22T02:13:34.488Z,99684.00
2018-08-22T02:16:05.222Z,99683.00
2018-08-22T02:18:35.716Z,99687.00
2018-08-22T02:21:06.712Z,99679.00
2018-08-22T02:23:37.218Z,99689.00
2018-08-22T02:26:07.653Z,99688.00
2018-08-22T02:28:38.144Z,99689.00
2018-08-22T02:31:08.848Z,99686.00
2018-08-22T02:33:39.333Z,99685.00
2018-08-22T02:36:10.003Z,99682.00
2018-08-22T02:38:40.715Z,99685.00
2018-08-22T02:41:11.203Z,99680.00
2018-08-22T02:43:41.735Z,99682.00
2018-08-22T02:46:12.212Z,99681.00
2018-08-22T02:48:47.829Z,99684.00
2018-08-22T02:51:18.314Z,99684.00
2018-08-22T02:53:49.102Z,99675.00
2018-08-22T02:56:19.832Z,99678.00
2018-08-22T02:58:50.526Z,99678.00
2018-08-22T03:01:21.291Z,99681.00
2018-08-22T03:03:51.783Z,99677.00
2018-08-22T03:06:22.327Z,99678.00
2018-08-22T03:08:52.824Z,99678.00
2018-08-22T03:11:23.279Z,99677.00
2018-08-22T03:13:54.011Z,99681.00
2018-08-22T03:16:24.503Z,99686.00
2018-08-22T03:18:55.439Z,99686.00
2018-08-22T03:21:25.942Z,99684.00
2018-08-22T03:23:56.608Z,99687.00
2018-08-22T03:26:30.585Z,99689.00
2018-08-22T03:29:01.101Z,99683.00
2018-08-22T03:31:31.567Z,99682.00
2018-08-22T03:34:02.140Z,99680.00
2018-08-22T03:36:32.681Z,99680.00
2018-08-22T03:39:03.277Z,99678.00
2018-08-22T03:41:34.119Z,99673.00
2018-08-22T03:44:04.661Z,99675.00
2018-08-22T03:46:35.196Z,99675.00
2018-08-22T03:49:05.726Z,99675.00
2018-08-22T03:51:36.229Z,99674.00
2018-08-22T03:54:06.750Z,99675.00
2018-08-22T03:56:37.399Z,99677.00
2018-08-22T03:59:08.143Z,99676.00
2018-08-22T04:01:38.583Z,99680.00
2018-08-22T04:04:09.027Z,99678.00
2018-08-22T04:06:39.736Z,99679.00
2018-08-22T04:09:16.813Z,99681.00
2018-08-22T04:11:47.538Z,99677.00
2018-08-22T04:14:18.417Z,99680.00
2018-08-22T04:16:48.877Z,99679.00
2018-08-22T04:19:19.370Z,99683.00
2018-08-22T04:21:50.019Z,99682.00
2018-08-22T04:24:20.712Z,99688.00
2018-08-22T04:26:51.621Z,99680.00
2018-08-22T04:29:22.312Z,99676.00
2018-08-22T04:31:52.786Z,99679.00
2018-08-22T04:34:23.586Z,99688.00
2018-08-22T04:36:54.236Z,99684.00
2018-08-22T04:39:24.711Z,99682.00
2018-08-22T04:41:55.171Z,99683.00
2018-08-22T04:44:25.746Z,99680.00
2018-08-22T04:46:56.185Z,99681.00
2018-08-22T04:49:26.712Z,99682.00
2018-08-22T04:51:57.400Z,99684.00
2018-08-22T04:54:28.176Z,99686.00
2018-08-22T04:56:58.933Z,99688.00
2018-08-22T04:59:29.700Z,99685.00
2018-08-22T05:02:00.472Z,99691.00
2018-08-22T05:04:30.940Z,99689.00
2018-08-22T05:07:01.470Z,99694.00
2018-08-22T05:09:32.293Z,99691.00
2018-08-22T05:12:02.823Z,99690.00
2018-08-22T05:14:33.611Z,99692.00
2018-08-22T05:17:04.112Z,99693.00
2018-08-22T05:19:34.716Z,99691.00
2018-08-22T05:22:05.227Z,99682.00
2018-08-22T05:24:35.756Z,99692.00
2018-08-22T05:27:06.573Z,99693.00
2018-08-22T05:29:45.999Z,99693.00
2018-08-22T05:32:16.853Z,99690.00
2018-08-22T05:34:47.503Z,99693.00
2018-08-22T05:37:18.189Z,99687.00
2018-08-22T05:39:49.682Z,99689.00
2018-08-22T05:42:20.523Z,99695.00
2018-08-22T05:44:51.464Z,99690.00
2018-08-22T05:47:21.987Z,99696.00
2018-08-22T05:59:25.513Z,99691.00
2018-08-22T06:01:55.892Z,99690.00
2018-08-22T06:04:26.500Z,99701.00
2018-08-22T06:06:56.856Z,99692.00
2018-08-22T06:09:27.218Z,99690.00
2018-08-22T06:11:57.608Z,99690.00
2018-08-22T06:14:27.951Z,99689.00
2018-08-22T06:17:04.953Z,99686.00
2018-08-22T06:19:35.329Z,99692.00
2018-08-22T06:22:05.737Z,99691.00
2018-08-22T06:24:36.102Z,99690.00
2018-08-22T06:27:06.488Z,99688.00
2018-08-22T06:29:36.869Z,99686.00
2018-08-22T06:32:07.253Z,99683.00
2018-08-22T06:34:38.096Z,99687.00
2018-08-22T06:37:08.473Z,99689.00
2018-08-22T06:39:38.812Z,99688.00
2018-08-22T06:42:15.788Z,99690.00
2018-08-22T06:44:46.398Z,99682.00
2018-08-22T06:47:16.806Z,99685.00
2018-08-22T06:49:47.145Z,99687.00
2018-08-22T06:52:17.622Z,99681.00
2018-08-22T06:54:48.259Z,99682.00
2018-08-22T06:57:21.629Z,99679.00
2018-08-22T06:59:51.996Z,99674.00
2018-08-22T07:02:22.374Z,99672.00
2018-08-22T07:04:53.233Z,99673.00
2018-08-22T07:07:23.572Z,99672.00
2018-08-22T07:09:53.941Z,99668.00
2018-08-22T07:12:24.313Z,99670.00
2018-08-22T07:14:54.648Z,99668.00
2018-08-22T07:17:25.249Z,99669.00
2018-08-22T07:19:55.635Z,99672.00
2018-08-22T07:22:26.022Z,99662.00
2018-08-22T07:24:56.605Z,99672.00
2018-08-22T07:27:26.971Z,99675.00
2018-08-22T07:29:57.617Z,99673.00
2018-08-22T07:32:28.129Z,99679.00
2018-08-22T07:34:58.465Z,99679.00
2018-08-22T07:37:28.847Z,99676.00
2018-08-22T07:39:59.178Z,99680.00
2018-08-22T07:42:29.790Z,99674.00
2018-08-22T07:45:00.373Z,99673.00
2018-08-22T07:47:30.750Z,99676.00
2018-08-22T07:50:01.643Z,99673.00
2018-08-22T07:52:32.548Z,99671.00
2018-08-22T07:55:03.696Z,99667.00
2018-08-22T07:57:34.058Z,99662.00
2018-08-22T08:00:05.122Z,99662.00
2018-08-22T08:02:36.232Z,99667.00
2018-08-22T08:05:07.482Z,99671.00
2018-08-22T08:07:38.408Z,99670.00
2018-08-22T08:10:12.201Z,99673.00
2018-08-22T08:12:43.106Z,99667.00
2018-08-22T08:15:15.217Z,99670.00
2018-08-22T08:17:46.214Z,99666.00
2018-08-22T08:20:17.106Z,99664.00
2018-08-22T08:22:48.285Z,99666.00
2018-08-22T08:25:19.206Z,99666.00
2018-08-22T08:27:50.396Z,99669.00
2018-08-22T08:30:21.552Z,99667.00
2018-08-22T08:32:51.942Z,99663.00
2018-08-22T08:35:22.287Z,99666.00
2018-08-22T08:37:52.692Z,99660.00
2018-08-22T08:40:23.285Z,99657.00
2018-08-22T08:42:54.199Z,99660.00
2018-08-22T08:45:25.109Z,99656.00
2018-08-22T08:47:55.484Z,99654.00
2018-08-22T08:50:25.949Z,99652.00
2018-08-22T08:52:56.480Z,99653.00
2018-08-22T08:55:27.036Z,99645.00
2018-08-22T08:57:57.737Z,99644.00
2018-08-22T09:00:28.127Z,99646.00
2018-08-22T09:02:59.262Z,99645.00
2018-08-22T09:05:30.233Z,99641.00
2018-08-22T09:08:01.167Z,99645.00
2018-08-22T09:10:32.140Z,99645.00
2018-08-22T09:13:03.041Z,99641.00
2018-08-22T09:15:33.950Z,99641.00
2018-08-22T09:18:05.084Z,99640.00
2018-08-22T09:20:36.094Z,99642.00
2018-08-22T09:23:07.291Z,99638.00
2018-08-22T09:25:38.452Z,99638.00
2018-08-22T09:28:09.659Z,99635.00
2018-08-22T09:30:40.998Z,99632.00
2018-08-22T09:33:12.165Z,99633.00
2018-08-22T09:35:43.301Z,99630.00
2018-08-22T09:38:14.463Z,99628.00
2018-08-22T09:40:45.354Z,99628.00
2018-08-22T09:43:16.579Z,99629.00
2018-08-22T09:45:47.660Z,99627.00
2018-08-22T09:48:18.594Z,99621.00
2018-08-22T09:50:49.565Z,99625.00
2018-08-22T09:53:20.649Z,99618.00
2018-08-22T09:55:51.541Z,99623.00
2018-08-22T09:58:22.721Z,99620.00
2018-08-22T10:00:58.711Z,99622.00
2018-08-22T10:03:44.334Z,99610.00
2018-08-22T10:06:30.524Z,99607.00
2018-08-22T10:09:02.819Z,99609.00
2018-08-22T10:11:33.717Z,99606.00
2018-08-22T10:14:04.658Z,99602.00
2018-08-22T10:16:35.592Z,99600.00
2018-08-22T10:19:06.572Z,99599.00
2018-08-22T10:21:37.668Z,99596.00
2018-08-22T10:25:11.904Z,99590.00
2018-08-22T10:27:42.796Z,99588.00
2018-08-22T10:30:13.708Z,99584.00
2018-08-22T10:32:44.914Z,99586.00
2018-08-22T10:35:15.960Z,99579.00
2018-08-22T10:37:47.110Z,99575.00
2018-08-22T10:40:18.033Z,99578.00
2018-08-22T10:42:49.181Z,99573.00
2018-08-22T10:45:20.112Z,99569.00
2018-08-22T10:47:51.013Z,99565.00
2018-08-22T10:50:21.932Z,99562.00
2018-08-22T10:52:53.057Z,99566.00
2018-08-22T10:55:23.997Z,99564.00
2018-08-22T10:57:54.916Z,99564.00
2018-08-22T11:00:25.818Z,99565.00
2018-08-22T11:02:56.670Z,99559.00
2018-08-22T11:05:27.641Z,99556.00
2018-08-22T11:07:58.497Z,99559.00
2018-08-22T11:10:29.677Z,99559.00
2018-08-22T11:13:00.532Z,99558.00
2018-08-22T11:15:31.675Z,99558.00
2018-08-22T11:18:02.796Z,99552.00
2018-08-22T11:20:33.830Z,99555.00
2018-08-22T11:23:21.621Z,99554.00
2018-08-22T11:26:10.091Z,99556.00
2018-08-22T11:28:57.876Z,99554.00
2018-08-22T11:31:45.561Z,99549.00
2018-08-22T11:34:33.379Z,99547.00
2018-08-22T11:37:12.593Z,99545.00
2018-08-22T11:39:46.292Z,99546.00
2018-08-22T11:42:17.301Z,99548.00
2018-08-22T11:44:48.428Z,99543.00
2018-08-22T11:47:19.274Z,99543.00
2018-08-22T11:49:50.816Z,99540.00
2018-08-22T11:52:21.693Z,99532.00
2018-08-22T11:54:52.593Z,99535.00
2018-08-22T11:57:23.460Z,99529.00
2018-08-22T11:59:55.069Z,99531.00
2018-08-22T12:02:26.369Z,99534.00
2018-08-22T12:04:57.562Z,99532.00
2018-08-22T12:07:28.419Z,99531.00
2018-08-22T12:09:59.312Z,99530.00
2018-08-22T12:12:30.417Z,99527.00
2018-08-22T12:15:01.540Z,99527.00
2018-08-22T12:17:32.646Z,99517.00
2018-08-22T12:20:03.595Z,99514.00
2018-08-22T12:22:34.696Z,99512.00
2018-08-22T12:25:05.817Z,99507.00
2018-08-22T12:27:36.717Z,99504.00
2018-08-22T12:30:07.598Z,99502.00
2018-08-22T12:32:38.481Z,99500.00
2018-08-22T12:35:09.610Z,99498.00
2018-08-22T12:37:40.477Z,99497.00
2018-08-22T12:40:11.546Z,99498.00
2018-08-22T12:42:42.392Z,99493.00
2018-08-22T12:45:13.285Z,99495.00
2018-08-22T12:47:44.157Z,99491.00
2018-08-22T12:50:15.060Z,99488.00
2018-08-22T12:52:46.091Z,99480.00
2018-08-22T12:55:16.956Z,99479.00
2018-08-22T12:57:47.804Z,99482.00
2018-08-22T13:00:18.717Z,99477.00
2018-08-22T13:02:49.568Z,99475.00
2018-08-22T13:05:20.442Z,99483.00
2018-08-22T13:07:51.299Z,99470.00
2018-08-22T13:10:22.189Z,99467.00
2018-08-22T13:12:53.053Z,99469.00
2018-08-22T13:15:23.913Z,99479.00
2018-08-22T13:17:54.776Z,99469.00
2018-08-22T13:20:25.648Z,99468.00
2018-08-22T13:22:56.629Z,99468.00
2018-08-22T13:25:27.480Z,99464.00
2018-08-22T13:27:58.491Z,99457.00
2018-08-22T13:30:29.567Z,99456.00
2018-08-22T13:33:00.665Z,99461.00
2018-08-22T13:35:31.533Z,99460.00
2018-08-22T13:38:02.385Z,99453.00
2018-08-22T13:40:33.273Z,99446.00
2018-08-22T13:43:04.324Z,99447.00
2018-08-22T13:45:35.392Z,99444.00
2018-08-22T13:48:06.260Z,99440.00
2018-08-22T13:50:37.168Z,99438.00
2018-08-22T13:53:08.276Z,99434.00
2018-08-22T13:55:39.177Z,99438.00
2018-08-22T13:58:10.036Z,99440.00
2018-08-22T14:00:41.192Z,99436.00
2018-08-22T14:03:12.302Z,99434.00
2018-08-22T14:05:43.192Z,99431.00
2018-08-22T14:08:14.053Z,99429.00
2018-08-22T14:10:44.934Z,99428.00
2018-08-22T14:13:16.044Z,99426.00
2018-08-22T14:15:46.997Z,99420.00
2018-08-22T14:18:17.857Z,99413.00
2018-08-22T14:20:48.740Z,99413.00
2018-08-22T14:23:19.604Z,99408.00
2018-08-22T14:25:50.481Z,99407.00
2018-08-22T14:28:27.601Z,99405.00
2018-08-22T14:30:58.749Z,99403.00
2018-08-22T14:33:29.649Z,99398.00
2018-08-22T14:36:00.710Z,99400.00
2018-08-22T14:38:31.557Z,99399.00
2018-08-22T14:41:02.708Z,99400.00
2018-08-22T14:43:33.565Z,99396.00
2018-08-22T14:46:04.445Z,99394.00
2018-08-22T14:48:35.458Z,99393.00
2018-08-22T14:51:06.611Z,99392.00
2018-08-22T14:53:37.461Z,99393.00
2018-08-22T14:56:19.437Z,99387.00
2018-08-22T14:58:50.601Z,99385.00
2018-08-22T15:01:21.544Z,99382.00
2018-08-22T15:03:52.401Z,99373.00
2018-08-22T15:06:23.281Z,99371.00
2018-08-22T15:10:19.282Z,99371.00
2018-08-22T15:12:50.474Z,99363.00
2018-08-22T15:15:21.473Z,99360.00
2018-08-22T15:17:52.349Z,99359.00
2018-08-22T15:20:23.220Z,99359.00
2018-08-22T15:22:54.105Z,99358.00
2018-08-22T15:25:24.967Z,99362.00
2018-08-22T15:27:55.851Z,99362.00
2018-08-22T15:30:26.958Z,99356.00
2018-08-22T15:32:58.096Z,99354.00
2018-08-22T15:35:28.961Z,99354.00
2018-08-22T15:37:59.836Z,99359.00
2018-08-22T15:40:30.680Z,99356.00
2018-08-22T15:43:01.756Z,99356.00
2018-08-22T15:45:32.613Z,99354.00
2018-08-22T15:48:03.540Z,99347.00
2018-08-22T15:50:34.648Z,99353.00
2018-08-22T15:53:05.686Z,99350.00
2018-08-22T15:55:36.537Z,99349.00
2018-08-22T15:58:07.396Z,99345.00
2018-08-22T16:00:51.601Z,99342.00
2018-08-22T16:03:23.504Z,99340.00
2018-08-22T16:05:55.512Z,99337.00
2018-08-22T16:08:27.633Z,99339.00
2018-08-22T16:10:58.545Z,99338.00
2018-08-22T16:13:30.845Z,99330.00
2018-08-22T16:16:03.625Z,99326.00
2018-08-22T16:18:35.036Z,99327.00
2018-08-22T16:21:08.057Z,99325.00
2018-08-22T16:23:38.945Z,99323.00
2018-08-22T16:26:10.041Z,99321.00
2018-08-22T16:28:53.515Z,99319.00
2018-08-22T16:31:29.549Z,99325.00
2018-08-22T16:34:01.498Z,99326.00
2018-08-22T16:36:32.380Z,99327.00
2018-08-22T16:39:03.388Z,99323.00
2018-08-22T16:41:34.486Z,99318.00
2018-08-22T16:44:05.361Z,99314.00
2018-08-22T16:46:36.240Z,99317.00
2018-08-22T16:49:07.138Z,99318.00
2018-08-22T16:51:38.261Z,99316.00
2018-08-22T16:54:09.605Z,99317.00
2018-08-22T16:56:40.820Z,99316.00
2018-08-22T16:59:13.240Z,99314.00
2018-08-22T17:01:49.072Z,99315.00
2018-08-22T17:04:20.202Z,99316.00
2018-08-22T17:06:51.341Z,99316.00
2018-08-22T17:09:22.228Z,99319.00
2018-08-22T17:11:53.104Z,99316.00
2018-08-22T17:14:24.257Z,99315.00
2018-08-22T17:16:55.156Z,99318.00
2018-08-22T17:19:26.071Z,99322.00
2018-08-22T17:21:56.957Z,99321.00
2018-08-22T17:24:27.885Z,99318.00
2018-08-22T17:26:58.764Z,99312.00
2018-08-22T17:29:30.008Z,99317.00
2018-08-22T17:32:04.351Z,99310.00
2018-08-22T17:34:35.334Z,99314.00
2018-08-22T17:37:09.097Z,99316.00
2018-08-22T17:39:40.511Z,99320.00
2018-08-22T17:42:11.378Z,99319.00
2018-08-22T17:44:42.292Z,99321.00
2018-08-22T17:47:13.191Z,99319.00
2018-08-22T17:49:55.396Z,99317.00
2018-08-22T17:52:33.105Z,99321.00
2018-08-22T17:55:04.025Z,99330.00
2018-08-22T17:57:35.168Z,99325.00
2018-08-22T18:00:27.235Z,99329.00
2018-08-22T18:02:58.156Z,99330.00
2018-08-22T18:05:30.190Z,99333.00
2018-08-22T18:08:05.257Z,99332.00
2018-08-22T18:10:40.620Z,99336.00
2018-08-22T18:13:15.558Z,99336.00
2018-08-22T18:15:46.647Z,99342.00
2018-08-22T18:18:19.644Z,99346.00
2018-08-22T18:20:50.741Z,99341.00
2018-08-22T18:23:21.090Z,99346.00
2018-08-22T18:25:55.561Z,99346.00
2018-08-22T18:28:25.921Z,99350.00
2018-08-22T18:30:56.349Z,99351.00
2018-08-22T18:33:26.692Z,99356.00
2018-08-22T18:35:57.073Z,99356.00
2018-08-22T18:38:27.869Z,99362.00
2018-08-22T18:41:07.781Z,99360.00
2018-08-22T18:43:38.449Z,99365.00
2018-08-22T18:46:09.345Z,99366.00
2018-08-22T18:48:40.240Z,99366.00
2018-08-22T18:51:10.858Z,99365.00
2018-08-22T18:53:41.549Z,99373.00
2018-08-22T18:56:16.032Z,99375.00
2018-08-22T18:58:46.405Z,99376.00
2018-08-22T19:01:16.756Z,99381.00
2018-08-22T19:03:47.394Z,99381.00
2018-08-22T19:06:17.748Z,99384.00
2018-08-22T19:08:48.050Z,99388.00
2018-08-22T19:11:19.394Z,99384.00
2018-08-22T19:13:49.940Z,99385.00
2018-08-22T19:16:20.272Z,99388.00
2018-08-22T19:18:50.673Z,99389.00
2018-08-22T19:21:21.004Z,99390.00
2018-08-22T19:23:56.764Z,99391.00
2018-08-22T19:26:27.329Z,99393.00
2018-08-22T19:29:04.861Z,99397.00
2018-08-22T19:31:36.731Z,99398.00
2018-08-22T19:34:07.049Z,99395.00
2018-08-22T19:36:37.386Z,99394.00
2018-08-22T19:39:07.929Z,99401.00
2018-08-22T19:41:38.260Z,99403.00
2018-08-22T19:44:08.813Z,99400.00
2018-08-22T19:46:39.165Z,99399.00
2018-08-22T19:49:09.585Z,99399.00
2018-08-22T19:51:40.121Z,99399.00
2018-08-22T19:54:10.425Z,99398.00
2018-08-22T19:56:40.745Z,99399.00
2018-08-22T19:59:11.118Z,99400.00
2018-08-22T20:01:41.755Z,99398.00
2018-08-22T20:04:12.110Z,99403.00
2018-08-22T20:06:42.708Z,99407.00
2018-08-22T20:09:13.036Z,99404.00
2018-08-22T20:11:43.390Z,99410.00
2018-08-22T20:14:13.708Z,99405.00
2018-08-22T20:16:44.522Z,99412.00
2018-08-22T20:19:15.108Z,99414.00
2018-08-22T20:21:45.465Z,99413.00
2018-08-22T20:24:15.919Z,99410.00
2018-08-22T20:26:52.734Z,99413.00
2018-08-22T20:29:23.081Z,99413.00
2018-08-22T20:31:53.444Z,99422.00
2018-08-22T20:34:24.035Z,99420.00
2018-08-22T20:36:54.399Z,99418.00
2018-08-22T20:39:24.729Z,99414.00
2018-08-22T20:42:02.144Z,99413.00
2018-08-22T20:44:32.617Z,99414.00
2018-08-22T20:47:03.033Z,99410.00
2018-08-22T20:49:33.409Z,99414.00
2018-08-22T20:52:04.033Z,99413.00
2018-08-22T20:54:34.385Z,99419.00
2018-08-22T20:57:04.738Z,99418.00
2018-08-22T20:59:35.125Z,99416.00
2018-08-22T21:02:06.696Z,99415.00
2018-08-22T21:04:37.262Z,99417.00
2018-08-22T21:07:07.864Z,99409.00
2018-08-22T21:09:38.269Z,99415.00
2018-08-22T21:12:08.653Z,99415.00
2018-08-22T21:14:39.300Z,99418.00
2018-08-22T21:17:09.820Z,99415.00
2018-08-22T21:19:40.398Z,99415.00
2018-08-22T21:22:26.078Z,99413.00
2018-08-22T21:24:57.713Z,99414.00
2018-08-22T21:27:28.307Z,99411.00
2018-08-22T21:29:58.812Z,99409.00
2018-08-22T21:32:29.175Z,99413.00
2018-08-22T21:34:59.773Z,99410.00
2018-08-22T21:37:30.987Z,99412.00
2018-08-22T21:40:01.336Z,99415.00
2018-08-22T21:42:32.847Z,99413.00
2018-08-22T21:45:03.360Z,99415.00
2018-08-22T21:47:33.729Z,99417.00
2018-08-22T21:50:04.085Z,99410.00
2018-08-22T21:53:02.548Z,99411.00
2018-08-22T21:55:38.284Z,99411.00
2018-08-22T21:58:09.713Z,99412.00
2018-08-22T22:00:40.036Z,99413.00
2018-08-22T22:03:22.314Z,99413.00
2018-08-22T22:05:58.024Z,99414.00
2018-08-22T22:08:28.367Z,99415.00
2018-08-22T22:14:41.105Z,99416.00
2018-08-22T22:17:11.500Z,99418.00
2018-08-22T22:19:41.863Z,99418.00
2018-08-22T22:22:12.224Z,99419.00
2018-08-22T22:24:50.668Z,99419.00
2018-08-22T22:27:21.078Z,99413.00
2018-08-22T22:30:00.317Z,99417.00
2018-08-22T22:32:31.038Z,99418.00
2018-08-22T22:35:01.751Z,99420.00
2018-08-22T22:37:32.361Z,99420.00
2018-08-22T22:40:02.737Z,99426.00
2018-08-22T22:42:33.108Z,99421.00
2018-08-22T22:45:03.432Z,99427.00
2018-08-22T22:47:34.743Z,99425.00
2018-08-22T22:50:05.115Z,99423.00
2018-08-22T22:52:41.428Z,99421.00
2018-08-22T22:55:12.190Z,99422.00
2018-08-22T22:57:43.912Z,99420.00
2018-08-22T23:00:15.436Z,99419.00
2018-08-22T23:02:46.652Z,99420.00
2018-08-22T23:05:17.030Z,99416.00
2018-08-22T23:07:47.404Z,99418.00
2018-08-22T23:10:17.725Z,99420.00
2018-08-22T23:12:48.352Z,99419.00
2018-08-22T23:15:23.999Z,99415.00
2018-08-22T23:17:59.334Z,99411.00
2018-08-22T23:20:45.594Z,99410.00
2018-08-22T23:23:34.883Z,99412.00
2018-08-22T23:26:14.761Z,99407.00
2018-08-22T23:28:45.548Z,99406.00
2018-08-22T23:31:18.812Z,99403.00
2018-08-22T23:33:49.472Z,99404.00
2018-08-22T23:36:20.030Z,99406.00
2018-08-22T23:38:50.349Z,99406.00
2018-08-22T23:41:20.637Z,99401.00
2018-08-22T23:43:52.375Z,99401.00
2018-08-22T23:46:22.944Z,99405.00
2018-08-22T23:48:56.549Z,99403.00
2018-08-22T23:51:27.049Z,99403.00
2018-08-22T23:53:59.834Z,99405.00
2018-08-22T23:56:31.368Z,99401.00
2018-08-22T23:59:01.717Z,99400.00
